createdAt,value
2018-06-03T00:00:21.975Z,1014.11
2018-06-03T00:01:21.993Z,1014.12
2018-06-03T00:02:22.510Z,1014.11
2018-06-03T00:03:21.907Z,1014.08
2018-06-03T00:04:21.881Z,1014.10
2018-06-03T00:05:21.907Z,1014.09
2018-06-03T00:06:21.887Z,1014.09
2018-06-03T00:07:21.813Z,1014.09
2018-06-03T00:08:21.838Z,1014.09
2018-06-03T00:09:21.767Z,1014.10
2018-06-03T00:10:21.745Z,1014.09
2018-06-03T00:11:21.723Z,1014.08
2018-06-03T00:12:21.703Z,1014.09
2018-06-03T00:13:22.073Z,1014.11
2018-06-03T00:14:21.658Z,1014.11
2018-06-03T00:15:21.632Z,1014.09
2018-06-03T00:16:21.608Z,1014.10
2018-06-03T00:17:22.526Z,1014.08
2018-06-03T00:18:21.622Z,1014.06
2018-06-03T00:19:21.545Z,1014.07
2018-06-03T00:20:21.519Z,1014.06
2018-06-03T00:21:22.016Z,1014.06
2018-06-03T00:22:21.523Z,1014.08
2018-06-03T00:23:22.024Z,1014.06
2018-06-03T00:24:21.474Z,1014.09
2018-06-03T00:25:21.441Z,1014.10
2018-06-03T00:26:22.022Z,1014.12
2018-06-03T00:27:21.364Z,1014.11
2018-06-03T00:28:22.019Z,1014.13
2018-06-03T00:29:21.372Z,1014.12
2018-06-03T00:30:22.018Z,1014.18
2018-06-03T00:31:21.271Z,1014.16
2018-06-03T00:32:21.246Z,1014.18
2018-06-03T00:33:21.229Z,1014.16
2018-06-03T00:34:21.261Z,1014.21
2018-06-03T00:35:21.199Z,1014.16
2018-06-03T00:36:21.162Z,1014.23
2018-06-03T00:37:21.145Z,1014.15
2018-06-03T00:38:22.024Z,1014.13
2018-06-03T00:39:21.140Z,1014.19
2018-06-03T00:40:21.075Z,1014.16
2018-06-03T00:41:21.045Z,1014.19
2018-06-03T00:42:21.021Z,1014.16
2018-06-03T00:43:21.521Z,1014.18
2018-06-03T00:44:21.040Z,1014.21
2018-06-03T00:45:20.959Z,1014.21
2018-06-03T00:46:20.933Z,1014.21
2018-06-03T00:47:20.930Z,1014.21
2018-06-03T00:48:20.888Z,1014.24
2018-06-03T00:49:20.936Z,1014.25
2018-06-03T00:50:20.848Z,1014.29
2018-06-03T00:51:21.527Z,1014.26
2018-06-03T00:52:20.801Z,1014.27
2018-06-03T00:53:21.524Z,1014.29
2018-06-03T00:54:20.807Z,1014.23
2018-06-03T00:55:20.776Z,1014.26
2018-06-03T00:56:20.758Z,1014.26
2018-06-03T00:57:20.688Z,1014.25
2018-06-03T00:58:20.659Z,1014.29
2018-06-03T00:59:21.548Z,1014.29
2018-06-03T01:00:20.668Z,1014.29
2018-06-03T01:01:20.588Z,1014.27
2018-06-03T01:02:20.570Z,1014.28
2018-06-03T01:03:21.527Z,1014.31
2018-06-03T01:04:20.546Z,1014.29
2018-06-03T01:05:20.542Z,1014.31
2018-06-03T01:06:20.525Z,1014.31
2018-06-03T01:07:20.458Z,1014.31
2018-06-03T01:08:20.435Z,1014.27
2018-06-03T01:09:20.420Z,1014.26
2018-06-03T01:10:20.388Z,1014.23
2018-06-03T01:11:20.611Z,1014.25
2018-06-03T01:12:20.340Z,1014.25
2018-06-03T01:13:20.324Z,1014.23
2018-06-03T01:14:20.299Z,1014.24
2018-06-03T01:15:21.031Z,1014.25
2018-06-03T01:16:20.316Z,1014.27
2018-06-03T01:17:20.232Z,1014.22
2018-06-03T01:18:20.211Z,1014.26
2018-06-03T01:19:21.034Z,1014.27
2018-06-03T01:20:20.166Z,1014.26
2018-06-03T01:21:20.590Z,1014.25
2018-06-03T01:22:20.171Z,1014.25
2018-06-03T01:23:20.145Z,1014.19
2018-06-03T01:24:20.075Z,1014.25
2018-06-03T01:25:21.036Z,1014.22
2018-06-03T01:26:20.029Z,1014.23
2018-06-03T01:27:20.533Z,1014.24
2018-06-03T01:28:20.045Z,1014.28
2018-06-03T01:29:19.978Z,1014.22
2018-06-03T01:30:19.945Z,1014.21
2018-06-03T01:31:19.921Z,1014.26
2018-06-03T01:32:19.943Z,1014.25
2018-06-03T01:33:20.537Z,1014.27
2018-06-03T01:34:19.902Z,1014.28
2018-06-03T01:35:20.537Z,1014.27
2018-06-03T01:36:19.821Z,1014.27
2018-06-03T01:37:19.786Z,1014.25
2018-06-03T01:38:20.538Z,1014.29
2018-06-03T01:39:19.798Z,1014.26
2018-06-03T01:40:19.718Z,1014.28
2018-06-03T01:41:19.709Z,1014.26
2018-06-03T01:42:20.537Z,1014.27
2018-06-03T01:43:19.653Z,1014.31
2018-06-03T01:44:19.690Z,1014.28
2018-06-03T01:45:20.539Z,1014.29
2018-06-03T01:46:19.598Z,1014.28
2018-06-03T01:47:19.563Z,1014.28
2018-06-03T01:48:19.542Z,1014.26
2018-06-03T01:49:19.591Z,1014.26
2018-06-03T01:50:19.498Z,1014.29
2018-06-03T01:51:19.477Z,1014.23
2018-06-03T01:52:19.496Z,1014.24
2018-06-03T01:53:20.039Z,1014.28
2018-06-03T01:54:19.451Z,1014.26
2018-06-03T01:55:19.433Z,1014.29
2018-06-03T01:56:19.364Z,1014.25
2018-06-03T01:57:20.040Z,1014.22
2018-06-03T01:58:19.320Z,1014.21
2018-06-03T01:59:19.299Z,1014.22
2018-06-03T02:00:19.344Z,1014.23
2018-06-03T02:01:19.257Z,1014.21
2018-06-03T02:02:19.229Z,1014.20
2018-06-03T02:03:20.044Z,1014.17
2018-06-03T02:04:19.183Z,1014.19
2018-06-03T02:05:19.217Z,1014.20
2018-06-03T02:06:19.164Z,1014.21
2018-06-03T02:07:19.116Z,1014.19
2018-06-03T02:08:19.093Z,1014.16
2018-06-03T02:09:19.141Z,1014.19
2018-06-03T02:10:19.048Z,1014.18
2018-06-03T02:11:19.083Z,1014.18
2018-06-03T02:12:19.046Z,1014.17
2018-06-03T02:13:18.982Z,1014.19
2018-06-03T02:14:18.960Z,1014.17
2018-06-03T02:15:18.939Z,1014.15
2018-06-03T02:16:18.968Z,1014.15
2018-06-03T02:17:18.893Z,1014.18
2018-06-03T02:18:18.871Z,1014.19
2018-06-03T02:19:18.846Z,1014.18
2018-06-03T02:20:18.822Z,1014.17
2018-06-03T02:21:18.847Z,1014.20
2018-06-03T02:22:18.792Z,1014.22
2018-06-03T02:23:18.759Z,1014.18
2018-06-03T02:24:18.738Z,1014.22
2018-06-03T02:25:18.711Z,1014.26
2018-06-03T02:26:18.738Z,1014.23
2018-06-03T02:27:18.674Z,1014.21
2018-06-03T02:28:18.709Z,1014.22
2018-06-03T02:29:18.621Z,1014.23
2018-06-03T02:30:18.605Z,1014.28
2018-06-03T02:31:18.580Z,1014.24
2018-06-03T02:32:18.603Z,1014.21
2018-06-03T02:33:18.534Z,1014.23
2018-06-03T02:34:18.508Z,1014.21
2018-06-03T02:35:18.484Z,1014.23
2018-06-03T02:36:18.469Z,1014.20
2018-06-03T02:37:18.496Z,1014.20
2018-06-03T02:38:18.421Z,1014.21
2018-06-03T02:39:18.396Z,1014.21
2018-06-03T02:40:18.371Z,1014.17
2018-06-03T02:41:18.358Z,1014.20
2018-06-03T02:42:18.375Z,1014.20
2018-06-03T02:43:18.306Z,1014.20
2018-06-03T02:44:18.325Z,1014.19
2018-06-03T02:45:18.260Z,1014.19
2018-06-03T02:46:18.237Z,1014.23
2018-06-03T02:47:18.217Z,1014.18
2018-06-03T02:48:18.251Z,1014.17
2018-06-03T02:49:18.168Z,1014.16
2018-06-03T02:50:18.148Z,1014.16
2018-06-03T02:51:18.123Z,1014.13
2018-06-03T02:52:18.104Z,1014.19
2018-06-03T02:53:18.127Z,1014.16
2018-06-03T02:54:18.094Z,1014.15
2018-06-03T02:55:18.077Z,1014.22
2018-06-03T02:56:18.005Z,1014.19
2018-06-03T02:57:17.982Z,1014.21
2018-06-03T02:58:17.958Z,1014.24
2018-06-03T02:59:17.996Z,1014.22
2018-06-03T03:00:17.915Z,1014.23
2018-06-03T03:01:17.891Z,1014.23
2018-06-03T03:02:17.872Z,1014.19
2018-06-03T03:03:17.845Z,1014.20
2018-06-03T03:04:17.871Z,1014.22
2018-06-03T03:05:17.798Z,1014.20
2018-06-03T03:06:17.777Z,1014.21
2018-06-03T03:07:17.801Z,1014.20
2018-06-03T03:08:17.727Z,1014.24
2018-06-03T03:09:17.708Z,1014.21
2018-06-03T03:10:17.733Z,1014.24
2018-06-03T03:11:17.662Z,1014.23
2018-06-03T03:12:17.639Z,1014.23
2018-06-03T03:13:17.612Z,1014.29
2018-06-03T03:14:17.593Z,1014.26
2018-06-03T03:15:17.611Z,1014.30
2018-06-03T03:16:17.545Z,1014.28
2018-06-03T03:17:17.522Z,1014.27
2018-06-03T03:18:17.497Z,1014.25
2018-06-03T03:19:17.475Z,1014.25
2018-06-03T03:20:17.494Z,1014.26
2018-06-03T03:21:17.430Z,1014.27
2018-06-03T03:22:17.409Z,1014.28
2018-06-03T03:23:17.388Z,1014.28
2018-06-03T03:24:17.392Z,1014.28
2018-06-03T03:25:17.332Z,1014.25
2018-06-03T03:26:17.354Z,1014.27
2018-06-03T03:27:17.290Z,1014.25
2018-06-03T03:28:17.263Z,1014.23
2018-06-03T03:29:17.239Z,1014.27
2018-06-03T03:30:17.262Z,1014.26
2018-06-03T03:31:17.193Z,1014.26
2018-06-03T03:32:17.181Z,1014.27
2018-06-03T03:33:17.146Z,1014.24
2018-06-03T03:34:17.121Z,1014.22
2018-06-03T03:35:17.151Z,1014.23
2018-06-03T03:36:17.073Z,1014.25
2018-06-03T03:37:17.095Z,1014.23
2018-06-03T03:38:17.026Z,1014.24
2018-06-03T03:39:17.006Z,1014.24
2018-06-03T03:40:16.986Z,1014.27
2018-06-03T03:41:16.958Z,1014.25
2018-06-03T03:42:16.978Z,1014.27
2018-06-03T03:43:16.911Z,1014.26
2018-06-03T03:44:16.884Z,1014.28
2018-06-03T03:45:16.865Z,1014.27
2018-06-03T03:46:16.877Z,1014.29
2018-06-03T03:47:16.817Z,1014.28
2018-06-03T03:48:16.791Z,1014.30
2018-06-03T03:49:16.808Z,1014.29
2018-06-03T03:50:16.745Z,1014.30
2018-06-03T03:51:16.768Z,1014.34
2018-06-03T03:52:16.707Z,1014.31
2018-06-03T03:53:16.676Z,1014.35
2018-06-03T03:54:16.650Z,1014.35
2018-06-03T03:55:16.666Z,1014.31
2018-06-03T03:56:16.603Z,1014.36
2018-06-03T03:57:16.581Z,1014.36
2018-06-03T03:58:16.606Z,1014.39
2018-06-03T03:59:16.530Z,1014.36
2018-06-03T04:00:16.547Z,1014.36
2018-06-03T04:01:16.483Z,1014.38
2018-06-03T04:02:16.463Z,1014.38
2018-06-03T04:03:17.073Z,1014.38
2018-06-03T04:04:16.497Z,1014.39
2018-06-03T04:05:16.391Z,1014.38
2018-06-03T04:06:16.370Z,1014.36
2018-06-03T04:07:16.346Z,1014.40
2018-06-03T04:08:16.367Z,1014.39
2018-06-03T04:09:16.296Z,1014.38
2018-06-03T04:10:16.275Z,1014.40
2018-06-03T04:11:16.278Z,1014.39
2018-06-03T04:12:16.224Z,1014.41
2018-06-03T04:13:16.320Z,1014.41
2018-06-03T04:14:16.176Z,1014.39
2018-06-03T04:15:16.158Z,1014.40
2018-06-03T04:16:16.130Z,1014.38
2018-06-03T04:17:16.117Z,1014.36
2018-06-03T04:18:16.119Z,1014.37
2018-06-03T04:19:16.057Z,1014.36
2018-06-03T04:20:16.036Z,1014.34
2018-06-03T04:21:16.012Z,1014.33
2018-06-03T04:22:15.988Z,1014.36
2018-06-03T04:23:16.048Z,1014.34
2018-06-03T04:24:15.938Z,1014.41
2018-06-03T04:25:15.921Z,1014.36
2018-06-03T04:26:15.893Z,1014.37
2018-06-03T04:27:15.868Z,1014.37
2018-06-03T04:28:15.890Z,1014.34
2018-06-03T04:29:15.820Z,1014.38
2018-06-03T04:30:15.800Z,1014.34
2018-06-03T04:31:15.827Z,1014.39
2018-06-03T04:32:15.751Z,1014.40
2018-06-03T04:33:15.758Z,1014.43
2018-06-03T04:34:15.705Z,1014.45
2018-06-03T04:35:15.685Z,1014.43
2018-06-03T04:36:15.702Z,1014.42
2018-06-03T04:37:15.632Z,1014.42
2018-06-03T04:38:15.611Z,1014.43
2018-06-03T04:39:15.586Z,1014.42
2018-06-03T04:40:15.564Z,1014.47
2018-06-03T04:41:15.620Z,1014.43
2018-06-03T04:42:15.516Z,1014.43
2018-06-03T04:43:15.505Z,1014.47
2018-06-03T04:44:15.468Z,1014.48
2018-06-03T04:45:15.445Z,1014.45
2018-06-03T04:46:15.466Z,1014.49
2018-06-03T04:47:15.400Z,1014.50
2018-06-03T04:48:15.383Z,1014.51
2018-06-03T04:49:15.353Z,1014.48
2018-06-03T04:50:15.341Z,1014.48
2018-06-03T04:51:15.352Z,1014.48
2018-06-03T04:52:15.281Z,1014.48
2018-06-03T04:53:15.331Z,1014.47
2018-06-03T04:54:15.237Z,1014.52
2018-06-03T04:55:15.211Z,1014.50
2018-06-03T04:56:15.187Z,1014.48
2018-06-03T04:57:15.165Z,1014.49
2018-06-03T04:58:15.188Z,1014.51
2018-06-03T04:59:15.118Z,1014.53
2018-06-03T05:00:15.095Z,1014.52
2018-06-03T05:01:15.100Z,1014.55
2018-06-03T05:02:15.048Z,1014.52
2018-06-03T05:03:15.071Z,1014.54
2018-06-03T05:04:15.001Z,1014.53
2018-06-03T05:05:14.975Z,1014.54
2018-06-03T05:06:14.954Z,1014.55
2018-06-03T05:07:14.931Z,1014.59
2018-06-03T05:08:14.951Z,1014.55
2018-06-03T05:09:14.883Z,1014.54
2018-06-03T05:10:14.863Z,1014.54
2018-06-03T05:11:14.879Z,1014.57
2018-06-03T05:12:14.816Z,1014.59
2018-06-03T05:13:14.833Z,1014.59
2018-06-03T05:14:14.768Z,1014.61
2018-06-03T05:15:14.743Z,1014.57
2018-06-03T05:16:14.721Z,1014.62
2018-06-03T05:17:14.698Z,1014.55
2018-06-03T05:18:14.731Z,1014.60
2018-06-03T05:19:14.648Z,1014.62
2018-06-03T05:20:14.623Z,1014.58
2018-06-03T05:21:14.615Z,1014.62
2018-06-03T05:22:14.579Z,1014.64
2018-06-03T05:23:14.666Z,1014.63
2018-06-03T05:24:14.575Z,1014.65
2018-06-03T05:25:14.509Z,1014.63
2018-06-03T05:26:14.497Z,1014.69
2018-06-03T05:27:14.467Z,1014.64
2018-06-03T05:28:14.486Z,1014.65
2018-06-03T05:29:14.414Z,1014.65
2018-06-03T05:30:14.392Z,1014.70
2018-06-03T05:31:14.386Z,1014.67
2018-06-03T05:32:14.401Z,1014.67
2018-06-03T05:33:14.318Z,1014.68
2018-06-03T05:34:14.297Z,1014.68
2018-06-03T05:35:14.280Z,1014.67
2018-06-03T05:36:14.248Z,1014.63
2018-06-03T05:37:14.272Z,1014.66
2018-06-03T05:38:14.205Z,1014.67
2018-06-03T05:39:14.189Z,1014.63
2018-06-03T05:40:14.229Z,1014.64
2018-06-03T05:41:14.136Z,1014.67
2018-06-03T05:42:14.111Z,1014.66
2018-06-03T05:43:14.133Z,1014.67
2018-06-03T05:44:14.063Z,1014.69
2018-06-03T05:45:14.044Z,1014.72
2018-06-03T05:46:14.018Z,1014.68
2018-06-03T05:47:13.998Z,1014.70
2018-06-03T05:48:14.015Z,1014.72
2018-06-03T05:49:13.949Z,1014.74
2018-06-03T05:50:13.929Z,1014.71
2018-06-03T05:51:13.944Z,1014.75
2018-06-03T05:52:13.878Z,1014.73
2018-06-03T05:53:13.899Z,1014.73
2018-06-03T05:54:14.152Z,1014.75
2018-06-03T05:55:13.853Z,1014.73
2018-06-03T05:56:13.796Z,1014.76
2018-06-03T05:57:13.766Z,1014.68
2018-06-03T05:58:14.597Z,1014.69
2018-06-03T05:59:13.739Z,1014.70
2018-06-03T06:00:13.736Z,1014.70
2018-06-03T06:01:13.671Z,1014.72
2018-06-03T06:02:13.699Z,1014.74
2018-06-03T06:03:13.686Z,1014.75
2018-06-03T06:04:13.606Z,1014.76
2018-06-03T06:05:13.579Z,1014.72
2018-06-03T06:06:13.557Z,1014.74
2018-06-03T06:07:13.556Z,1014.79
2018-06-03T06:08:13.553Z,1014.74
2018-06-03T06:09:13.486Z,1014.76
2018-06-03T06:10:13.508Z,1014.75
2018-06-03T06:11:13.448Z,1014.77
2018-06-03T06:12:13.416Z,1014.77
2018-06-03T06:13:13.435Z,1014.75
2018-06-03T06:14:13.374Z,1014.77
2018-06-03T06:15:13.349Z,1014.77
2018-06-03T06:16:13.323Z,1014.81
2018-06-03T06:17:13.300Z,1014.76
2018-06-03T06:18:13.324Z,1014.79
2018-06-03T06:19:13.295Z,1014.81
2018-06-03T06:20:13.299Z,1014.79
2018-06-03T06:21:13.212Z,1014.74
2018-06-03T06:22:13.187Z,1014.79
2018-06-03T06:23:13.220Z,1014.77
2018-06-03T06:24:13.179Z,1014.78
2018-06-03T06:25:13.113Z,1014.80
2018-06-03T06:26:13.096Z,1014.80
2018-06-03T06:27:13.073Z,1014.81
2018-06-03T06:28:13.042Z,1014.81
2018-06-03T06:29:13.064Z,1014.81
2018-06-03T06:30:13.002Z,1014.84
2018-06-03T06:31:12.991Z,1014.82
2018-06-03T06:32:12.948Z,1014.82
2018-06-03T06:33:12.989Z,1014.84
2018-06-03T06:34:12.902Z,1014.84
2018-06-03T06:35:12.882Z,1014.79
2018-06-03T06:36:12.857Z,1014.82
2018-06-03T06:37:12.837Z,1014.80
2018-06-03T06:38:12.861Z,1014.82
2018-06-03T06:39:13.167Z,1014.85
2018-06-03T06:40:12.774Z,1014.83
2018-06-03T06:41:12.755Z,1014.82
2018-06-03T06:42:12.722Z,1014.85
2018-06-03T06:43:12.718Z,1014.83
2018-06-03T06:44:12.717Z,1014.82
2018-06-03T06:45:12.711Z,1014.85
2018-06-03T06:46:12.628Z,1014.86
2018-06-03T06:47:12.605Z,1014.83
2018-06-03T06:48:12.622Z,1014.86
2018-06-03T06:49:12.572Z,1014.84
2018-06-03T06:50:12.585Z,1014.83
2018-06-03T06:51:12.560Z,1014.83
2018-06-03T06:52:12.490Z,1014.80
2018-06-03T06:53:12.473Z,1014.84
2018-06-03T06:54:12.464Z,1014.83
2018-06-03T06:55:12.463Z,1014.82
2018-06-03T06:56:12.450Z,1014.82
2018-06-03T06:57:12.377Z,1014.84
2018-06-03T06:58:12.360Z,1014.88
2018-06-03T06:59:12.333Z,1014.88
2018-06-03T07:00:12.328Z,1014.88
2018-06-03T07:01:12.342Z,1014.86
2018-06-03T07:02:12.266Z,1014.86
2018-06-03T07:03:12.249Z,1014.89
2018-06-03T07:04:12.223Z,1014.90
2018-06-03T07:05:12.240Z,1014.90
2018-06-03T07:06:12.213Z,1014.92
2018-06-03T07:07:12.295Z,1014.94
2018-06-03T07:08:12.129Z,1014.95
2018-06-03T07:09:12.103Z,1014.95
2018-06-03T07:10:12.113Z,1014.97
2018-06-03T07:11:12.064Z,1015.00
2018-06-03T07:12:12.078Z,1014.98
2018-06-03T07:13:12.022Z,1015.01
2018-06-03T07:14:11.991Z,1015.01
2018-06-03T07:15:11.981Z,1015.04
2018-06-03T07:16:11.949Z,1015.04
2018-06-03T07:17:11.964Z,1015.08
2018-06-03T07:18:11.900Z,1015.11
2018-06-03T07:19:11.881Z,1015.08
2018-06-03T07:20:11.885Z,1015.12
2018-06-03T07:21:11.882Z,1015.10
2018-06-03T07:22:11.854Z,1015.08
2018-06-03T07:23:11.832Z,1015.11
2018-06-03T07:24:11.764Z,1015.14
2018-06-03T07:25:11.749Z,1015.12
2018-06-03T07:26:11.719Z,1015.13
2018-06-03T07:27:36.705Z,1015.17
2018-06-03T07:28:36.701Z,1015.14
2018-06-03T07:29:36.623Z,1015.15
2018-06-03T07:30:37.342Z,1015.12
2018-06-03T07:31:36.590Z,1015.14
2018-06-03T07:32:36.596Z,1015.20
2018-06-03T07:33:36.590Z,1015.18
2018-06-03T07:34:36.514Z,1015.20
2018-06-03T07:35:36.490Z,1015.19
2018-06-03T07:36:36.463Z,1015.21
2018-06-03T07:37:36.460Z,1015.19
2018-06-03T07:38:36.479Z,1015.19
2018-06-03T07:39:36.394Z,1015.20
2018-06-03T07:40:36.380Z,1015.21
2018-06-03T07:41:36.353Z,1015.18
2018-06-03T07:42:36.335Z,1015.17
2018-06-03T07:43:36.374Z,1015.19
2018-06-03T07:44:36.285Z,1015.19
2018-06-03T07:45:36.314Z,1015.19
2018-06-03T07:46:36.274Z,1015.17
2018-06-03T07:47:36.327Z,1015.17
2018-06-03T07:48:36.194Z,1015.16
2018-06-03T07:49:36.175Z,1015.18
2018-06-03T07:50:36.144Z,1015.18
2018-06-03T07:51:36.174Z,1015.17
2018-06-03T07:52:36.101Z,1015.18
2018-06-03T07:53:36.128Z,1015.17
2018-06-03T07:54:36.082Z,1015.21
2018-06-03T07:55:36.034Z,1015.20
2018-06-03T07:56:36.851Z,1015.20
2018-06-03T07:57:36.044Z,1015.21
2018-06-03T07:58:36.004Z,1015.25
2018-06-03T07:59:35.939Z,1015.18
2018-06-03T08:00:35.919Z,1015.23
2018-06-03T08:01:35.913Z,1015.21
2018-06-03T08:02:35.874Z,1015.22
2018-06-03T08:03:35.913Z,1015.24
2018-06-03T08:04:35.827Z,1015.26
2018-06-03T08:05:35.804Z,1015.27
2018-06-03T08:06:35.852Z,1015.22
2018-06-03T08:07:35.766Z,1015.27
2018-06-03T08:08:35.738Z,1015.26
2018-06-03T08:09:35.760Z,1015.28
2018-06-03T08:10:35.697Z,1015.24
2018-06-03T08:11:35.670Z,1015.26
2018-06-03T08:12:35.664Z,1015.29
2018-06-03T08:13:35.626Z,1015.24
2018-06-03T08:14:35.657Z,1015.26
2018-06-03T08:15:36.354Z,1015.25
2018-06-03T08:16:35.557Z,1015.30
2018-06-03T08:17:35.540Z,1015.28
2018-06-03T08:18:35.512Z,1015.29
2018-06-03T08:19:35.557Z,1015.30
2018-06-03T08:20:35.468Z,1015.33
2018-06-03T08:21:35.450Z,1015.36
2018-06-03T08:22:35.430Z,1015.34
2018-06-03T08:23:36.359Z,1015.37
2018-06-03T08:24:35.432Z,1015.39
2018-06-03T08:25:35.369Z,1015.37
2018-06-03T08:26:35.332Z,1015.39
2018-06-03T08:27:35.318Z,1015.42
2018-06-03T08:28:35.292Z,1015.39
2018-06-03T08:29:35.430Z,1015.38
2018-06-03T08:30:35.242Z,1015.38
2018-06-03T08:31:35.228Z,1015.40
2018-06-03T08:32:35.195Z,1015.40
2018-06-03T08:33:35.173Z,1015.44
2018-06-03T08:34:35.188Z,1015.44
2018-06-03T08:35:35.124Z,1015.46
2018-06-03T08:36:35.111Z,1015.45
2018-06-03T08:37:35.129Z,1015.45
2018-06-03T08:38:35.069Z,1015.43
2018-06-03T08:39:35.039Z,1015.46
2018-06-03T08:40:35.014Z,1015.48
2018-06-03T08:41:35.063Z,1015.51
2018-06-03T08:42:34.973Z,1015.50
2018-06-03T08:43:34.963Z,1015.50
2018-06-03T08:44:34.924Z,1015.48
2018-06-03T08:45:34.904Z,1015.48
2018-06-03T08:46:34.931Z,1015.48
2018-06-03T08:47:34.908Z,1015.48
2018-06-03T08:48:34.837Z,1015.49
2018-06-03T08:49:34.816Z,1015.48
2018-06-03T08:50:34.796Z,1015.49
2018-06-03T08:51:34.821Z,1015.52
2018-06-03T08:52:34.819Z,1015.54
2018-06-03T08:53:34.723Z,1015.54
2018-06-03T08:54:34.708Z,1015.55
2018-06-03T08:55:34.681Z,1015.58
2018-06-03T08:56:34.660Z,1015.60
2018-06-03T08:57:34.814Z,1015.56
2018-06-03T08:58:34.613Z,1015.56
2018-06-03T08:59:34.603Z,1015.59
2018-06-03T09:00:34.615Z,1015.57
2018-06-03T09:01:34.569Z,1015.57
2018-06-03T09:02:34.563Z,1015.55
2018-06-03T09:03:34.597Z,1015.53
2018-06-03T09:04:34.529Z,1015.55
2018-06-03T09:05:34.457Z,1015.52
2018-06-03T09:06:34.434Z,1015.49
2018-06-03T09:07:34.412Z,1015.49
2018-06-03T09:08:34.463Z,1015.53
2018-06-03T09:09:34.415Z,1015.51
2018-06-03T09:10:34.392Z,1015.54
2018-06-03T09:11:34.332Z,1015.53
2018-06-03T09:12:34.346Z,1015.52
2018-06-03T09:13:34.291Z,1015.55
2018-06-03T09:14:34.424Z,1015.56
2018-06-03T09:15:34.242Z,1015.57
2018-06-03T09:16:34.213Z,1015.57
2018-06-03T09:17:34.230Z,1015.53
2018-06-03T09:18:34.216Z,1015.55
2018-06-03T09:19:34.145Z,1015.58
2018-06-03T09:20:34.135Z,1015.55
2018-06-03T09:21:34.100Z,1015.56
2018-06-03T09:22:34.129Z,1015.62
2018-06-03T09:23:34.101Z,1015.57
2018-06-03T09:24:34.044Z,1015.62
2018-06-03T09:25:34.074Z,1015.62
2018-06-03T09:26:33.990Z,1015.59
2018-06-03T09:27:33.980Z,1015.54
2018-06-03T09:28:33.956Z,1015.60
2018-06-03T09:29:33.922Z,1015.56
2018-06-03T09:30:33.950Z,1015.62
2018-06-03T09:31:33.880Z,1015.60
2018-06-03T09:32:33.861Z,1015.61
2018-06-03T09:33:33.878Z,1015.61
2018-06-03T09:34:33.834Z,1015.60
2018-06-03T09:35:33.791Z,1015.59
2018-06-03T09:36:33.780Z,1015.61
2018-06-03T09:37:33.748Z,1015.60
2018-06-03T09:38:33.798Z,1015.60
2018-06-03T09:39:33.707Z,1015.62
2018-06-03T09:40:33.682Z,1015.65
2018-06-03T09:41:33.663Z,1015.63
2018-06-03T09:42:33.785Z,1015.60
2018-06-03T09:43:33.612Z,1015.63
2018-06-03T09:44:33.630Z,1015.72
2018-06-03T09:45:33.584Z,1015.66
2018-06-03T09:46:33.551Z,1015.70
2018-06-03T09:47:33.582Z,1015.57
2018-06-03T09:48:33.509Z,1015.62
2018-06-03T09:49:33.486Z,1015.63
2018-06-03T09:50:33.467Z,1015.61
2018-06-03T09:51:33.486Z,1015.63
2018-06-03T09:52:33.485Z,1015.64
2018-06-03T09:53:33.402Z,1015.62
2018-06-03T09:54:33.384Z,1015.61
2018-06-03T09:55:33.357Z,1015.63
2018-06-03T09:56:33.371Z,1015.64
2018-06-03T09:57:33.438Z,1015.64
2018-06-03T09:58:33.292Z,1015.67
2018-06-03T09:59:33.284Z,1015.67
2018-06-03T10:00:33.317Z,1015.65
2018-06-03T10:01:33.331Z,1015.67
2018-06-03T10:02:33.209Z,1015.67
2018-06-03T10:03:33.230Z,1015.70
2018-06-03T10:04:33.168Z,1015.70
2018-06-03T10:05:33.189Z,1015.74
2018-06-03T10:06:33.141Z,1015.69
2018-06-03T10:07:33.102Z,1015.71
2018-06-03T10:08:33.079Z,1015.74
2018-06-03T10:09:33.058Z,1015.73
2018-06-03T10:10:33.077Z,1015.73
2018-06-03T10:11:33.021Z,1015.75
2018-06-03T10:12:33.009Z,1015.71
2018-06-03T10:13:32.972Z,1015.76
2018-06-03T10:14:32.995Z,1015.74
2018-06-03T10:15:32.961Z,1015.78
2018-06-03T10:16:32.912Z,1015.79
2018-06-03T10:17:32.895Z,1015.77
2018-06-03T10:18:32.872Z,1015.76
2018-06-03T10:19:32.917Z,1015.72
2018-06-03T10:20:32.886Z,1015.76
2018-06-03T10:21:33.854Z,1015.76
2018-06-03T10:22:32.787Z,1015.77
2018-06-03T10:23:32.768Z,1015.77
2018-06-03T10:24:32.744Z,1015.76
2018-06-03T10:25:32.792Z,1015.74
2018-06-03T10:26:32.704Z,1015.78
2018-06-03T10:27:32.684Z,1015.84
2018-06-03T10:28:32.665Z,1015.90
2018-06-03T10:29:32.642Z,1015.85
2018-06-03T10:30:32.684Z,1015.81
2018-06-03T10:31:32.604Z,1015.83
2018-06-03T10:32:32.593Z,1015.82
2018-06-03T10:33:32.560Z,1015.83
2018-06-03T10:34:32.553Z,1015.83
2018-06-03T10:35:32.573Z,1015.80
2018-06-03T10:36:32.492Z,1015.81
2018-06-03T10:37:32.471Z,1015.81
2018-06-03T10:38:32.450Z,1015.82
2018-06-03T10:39:32.442Z,1015.77
2018-06-03T10:40:32.457Z,1015.81
2018-06-03T10:41:32.450Z,1015.80
2018-06-03T10:42:32.367Z,1015.80
2018-06-03T10:43:32.345Z,1015.79
2018-06-03T10:44:32.333Z,1015.78
2018-06-03T10:45:32.304Z,1015.81
2018-06-03T10:46:32.337Z,1015.79
2018-06-03T10:47:32.259Z,1015.73
2018-06-03T10:48:32.237Z,1015.79
2018-06-03T10:49:32.237Z,1015.77
2018-06-03T10:50:32.200Z,1015.73
2018-06-03T10:51:32.221Z,1015.74
2018-06-03T10:52:32.156Z,1015.76
2018-06-03T10:53:32.141Z,1015.73
2018-06-03T10:54:32.129Z,1015.77
2018-06-03T10:55:32.139Z,1015.75
2018-06-03T10:56:32.091Z,1015.74
2018-06-03T10:57:32.108Z,1015.72
2018-06-03T10:58:32.032Z,1015.71
2018-06-03T10:59:32.010Z,1015.72
2018-06-03T11:00:31.990Z,1015.76
2018-06-03T11:01:31.967Z,1015.72
2018-06-03T11:02:31.995Z,1015.72
2018-06-03T11:03:31.941Z,1015.64
2018-06-03T11:04:31.962Z,1015.73
2018-06-03T11:05:31.938Z,1015.70
2018-06-03T11:06:31.872Z,1015.68
2018-06-03T11:07:31.885Z,1015.67
2018-06-03T11:08:31.870Z,1015.69
2018-06-03T11:09:31.863Z,1015.69
2018-06-03T11:10:31.786Z,1015.67
2018-06-03T11:11:31.773Z,1015.70
2018-06-03T11:12:31.745Z,1015.67
2018-06-03T11:13:31.764Z,1015.73
2018-06-03T11:14:31.952Z,1015.72
2018-06-03T11:15:31.691Z,1015.73
2018-06-03T11:16:31.666Z,1015.71
2018-06-03T11:17:31.648Z,1015.77
2018-06-03T11:18:31.634Z,1015.75
2018-06-03T11:19:31.658Z,1015.65
2018-06-03T11:20:31.591Z,1015.70
2018-06-03T11:21:31.585Z,1015.65
2018-06-03T11:22:31.553Z,1015.66
2018-06-03T11:23:31.551Z,1015.62
2018-06-03T11:24:31.566Z,1015.64
2018-06-03T11:25:31.509Z,1015.64
2018-06-03T11:26:31.478Z,1015.64
2018-06-03T11:27:31.503Z,1015.62
2018-06-03T11:28:31.444Z,1015.65
2018-06-03T11:29:31.475Z,1015.64
2018-06-03T11:30:31.410Z,1015.64
2018-06-03T11:31:31.390Z,1015.64
2018-06-03T11:32:31.380Z,1015.62
2018-06-03T11:33:31.370Z,1015.61
2018-06-03T11:34:31.377Z,1015.68
2018-06-03T11:35:31.359Z,1015.61
2018-06-03T11:36:31.298Z,1015.57
2018-06-03T11:37:31.294Z,1015.52
2018-06-03T11:38:31.264Z,1015.56
2018-06-03T11:39:31.260Z,1015.49
2018-06-03T11:40:31.278Z,1015.52
2018-06-03T11:41:31.212Z,1015.49
2018-06-03T11:42:31.189Z,1015.52
2018-06-03T11:43:31.182Z,1015.51
2018-06-03T11:44:31.151Z,1015.49
2018-06-03T11:45:31.200Z,1015.49
2018-06-03T11:46:31.161Z,1015.48
2018-06-03T11:47:31.105Z,1015.48
2018-06-03T11:48:31.081Z,1015.56
2018-06-03T11:49:31.069Z,1015.50
2018-06-03T11:50:31.053Z,1015.52
2018-06-03T11:51:31.139Z,1015.46
2018-06-03T11:52:31.010Z,1015.47
2018-06-03T11:53:30.994Z,1015.52
2018-06-03T11:54:30.972Z,1015.54
2018-06-03T11:55:30.959Z,1015.59
2018-06-03T11:56:30.984Z,1015.47
2018-06-03T11:57:30.974Z,1015.47
2018-06-03T11:58:31.420Z,1015.61
2018-06-03T11:59:30.883Z,1015.55
2018-06-03T12:00:30.870Z,1015.49
2018-06-03T12:01:30.852Z,1015.56
2018-06-03T12:02:30.876Z,1015.47
2018-06-03T12:03:30.812Z,1015.47
2018-06-03T12:04:30.792Z,1015.49
2018-06-03T12:05:30.778Z,1015.63